RKJK

Kunsan Air Base

Airport
ICAO code
RKJK
IATA Code
KUV
Summary
ICAO Region
APAC
ICAO Territory
Location

, Cholla-bukto

Serving
Kunsan
Elevation
29 ft
Coordinates
35° 54' 14" N , 126° 36' 57" E
Metar
RKJK 171355Z 33003KT 6SM BR CLR 20/18 A2972 RMK AO2A SLP068 T02000178 $

Runways

Designator Length Width Surface Rops
18/36 2743 46 CON Yes/Yes

Airport map

Aerial View

SKYbrary Partners:

Safety knowledge contributed by: